Time;durP1;ratioP1;P1;durP2;ratioP2;P2;SDS_P1;SDS_P2;PMS_P1;PMS_P2;Temp;Humidity;BMP_temperature;BMP_pressure;BME280_temperature;BME280_humidity;BME280_pressure;Samples;Min_cycle;Max_cycle;Signal;HPM_P1;HPM_P2
2023/10/31 00:01:51;;;;;;;26.08;13.52;;;;;;;13.67;100.00;101565.41;5016927;28;20036;-70
2023/10/31 00:04:16;;;;;;;21.55;11.95;;;;;;;14.03;100.00;101456.56;5025286;28;20037;-70
2023/10/31 00:06:42;;;;;;;22.73;12.48;;;;;;;13.38;100.00;101266.09;5015286;28;20464;-70
2023/10/31 00:09:08;;;;;;;27.42;11.93;;;;;;;13.78;100.00;101199.69;5019894;28;20032;-70
2023/10/31 00:11:33;;;;;;;27.05;11.40;;;;;;;13.34;100.00;101061.81;5018195;28;20042;-70
2023/10/31 00:13:59;;;;;;;43.20;12.38;;;;;;;13.53;100.00;101052.88;5023134;28;20132;-70
2023/10/31 00:16:24;;;;;;;32.85;11.10;;;;;;;13.42;100.00;100993.53;5008203;28;20398;-70
2023/10/31 00:18:49;;;;;;;25.48;11.15;;;;;;;13.30;100.00;100896.75;5010222;28;20041;-69
2023/10/31 00:21:15;;;;;;;13.68;11.00;;;;;;;12.96;100.00;100746.94;5020810;28;20276;-70
2023/10/31 00:23:45;;;;;;;14.77;11.13;;;;;;;12.97;100.00;100663.53;5010094;28;20025;-70
2023/10/31 00:26:10;;;;;;;12.43;10.57;;;;;;;12.81;100.00;100571.25;5018335;28;20025;-69
2023/10/31 00:28:36;;;;;;;14.07;10.95;;;;;;;13.08;100.00;100536.47;5007557;28;20040;-70
2023/10/31 00:31:03;;;;;;;14.88;10.73;;;;;;;13.58;100.00;100486.41;5017103;28;20061;-70
2023/10/31 00:33:29;;;;;;;12.85;10.07;;;;;;;13.39;100.00;100378.06;5017044;28;20160;-70
2023/10/31 00:35:54;;;;;;;15.45;11.05;;;;;;;13.25;100.00;100360.63;5017890;28;20488;-70
2023/10/31 00:38:20;;;;;;;14.75;11.50;;;;;;;13.33;100.00;100389.28;5019664;28;20517;-70
2023/10/31 00:40:45;;;;;;;15.23;11.90;;;;;;;13.03;100.00;100247.34;5017287;28;20620;-69
2023/10/31 00:43:11;;;;;;;14.90;11.45;;;;;;;13.00;100.00;100257.63;5022006;28;20029;-70
2023/10/31 00:45:36;;;;;;;14.55;10.98;;;;;;;13.25;100.00;100267.88;5020213;28;20041;-70
2023/10/31 00:48:02;;;;;;;15.48;11.45;;;;;;;13.68;100.00;100409.41;5016055;28;20041;-69
2023/10/31 00:50:28;;;;;;;14.88;11.38;;;;;;;13.19;100.00;100449.38;5017536;28;20033;-69
2023/10/31 00:52:54;;;;;;;12.85;10.80;;;;;;;13.63;100.00;100510.94;5018225;28;20511;-70
2023/10/31 00:55:19;;;;;;;16.27;11.85;;;;;;;13.31;100.00;100462.56;5015866;28;20045;-69
2023/10/31 00:57:45;;;;;;;14.20;11.23;;;;;;;13.51;100.00;100553.94;5023274;28;20029;-70
2023/10/31 01:00:11;;;;;;;26.02;11.50;;;;;;;13.44;100.00;100779.75;5017295;28;20029;-69
2023/10/31 01:02:36;;;;;;;36.88;11.15;;;;;;;13.41;100.00;101082.09;5014193;28;20120;-69
2023/10/31 01:05:02;;;;;;;15.00;9.98;;;;;;;13.17;100.00;101052.00;5015193;28;20420;-69
2023/10/31 01:07:27;;;;;;;132.30;13.65;;;;;;;12.88;100.00;101083.19;5008102;28;20049;-70
2023/10/31 01:09:53;;;;;;;45.17;10.30;;;;;;;13.18;100.00;101040.91;5022509;28;20119;-69
2023/10/31 01:12:18;;;;;;;14.45;8.95;;;;;;;13.18;100.00;101048.56;5017359;28;20408;-69
2023/10/31 01:14:43;;;;;;;17.80;9.80;;;;;;;13.00;100.00;101006.34;5015953;28;20485;-69
2023/10/31 01:17:09;;;;;;;10.23;9.10;;;;;;;12.89;100.00;100998.06;5019183;28;20037;-69
2023/10/31 01:19:34;;;;;;;10.05;8.82;;;;;;;13.18;100.00;101080.91;5019752;28;20032;-69
2023/10/31 01:22:00;;;;;;;12.23;8.63;;;;;;;12.56;100.00;100995.34;5020205;28;20377;-69
2023/10/31 01:24:25;;;;;;;24.50;8.57;;;;;;;12.56;100.00;100990.25;5016423;28;20425;-71
2023/10/31 01:26:50;;;;;;;9.48;8.07;;;;;;;12.91;100.00;101046.56;5022457;28;20558;-71
2023/10/31 01:29:16;;;;;;;9.40;7.85;;;;;;;12.99;100.00;101053.16;5017288;28;20056;-69
2023/10/31 01:31:41;;;;;;;85.38;9.90;;;;;;;12.33;100.00;101008.56;5017879;28;20038;-70
2023/10/31 01:34:08;;;;;;;20.83;8.07;;;;;;;12.26;100.00;100998.50;5008446;28;20566;-70
2023/10/31 01:36:33;;;;;;;14.30;7.63;;;;;;;12.38;100.00;101013.59;5018374;28;20037;-70
2023/10/31 01:38:59;;;;;;;11.25;7.63;;;;;;;12.71;100.00;101053.75;5021692;28;20043;-70
2023/10/31 01:41:24;;;;;;;26.83;7.82;;;;;;;12.22;100.00;101171.09;5006189;28;20065;-69
2023/10/31 01:43:50;;;;;;;45.33;8.93;;;;;;;12.53;100.00;101302.38;5014069;28;20034;-71
2023/10/31 01:46:15;;;;;;;143.23;11.38;;;;;;;12.36;100.00;101350.22;5017075;28;20470;-68
2023/10/31 01:48:41;;;;;;;195.70;12.00;;;;;;;12.31;100.00;101423.41;5014879;28;20037;-69
2023/10/31 01:51:07;;;;;;;44.25;9.90;;;;;;;12.26;100.00;101513.59;5017613;28;20087;-70
2023/10/31 01:53:34;;;;;;;106.60;11.48;;;;;;;12.38;100.00;101266.06;5015041;28;20033;-70
2023/10/31 01:56:01;;;;;;;107.60;11.35;;;;;;;12.69;100.00;101359.13;5017542;28;20507;-69
2023/10/31 01:58:31;;;;;;;44.47;9.70;;;;;;;12.75;100.00;101425.41;5019467;28;20079;-70
2023/10/31 02:00:57;;;;;;;30.40;9.60;;;;;;;12.69;100.00;101430.59;5012549;28;20030;-70
2023/10/31 02:03:22;;;;;;;20.90;10.38;;;;;;;12.82;100.00;101484.00;5005923;28;20034;-69
2023/10/31 02:05:48;;;;;;;12.77;8.50;;;;;;;12.68;100.00;101470.56;5007763;28;20026;-70
2023/10/31 02:08:14;;;;;;;14.18;9.73;;;;;;;12.42;100.00;101518.50;5019701;28;20037;-71
2023/10/31 02:10:40;;;;;;;14.45;9.75;;;;;;;12.57;100.00;101591.47;5014830;28;20511;-70
2023/10/31 02:13:16;;;;;;;10.63;8.82;;;;;;;12.68;100.00;101633.03;5014122;28;20037;-70
2023/10/31 02:15:42;;;;;;;10.77;8.40;;;;;;;13.02;100.00;101691.41;5016865;28;20113;-69
2023/10/31 02:18:08;;;;;;;12.35;9.43;;;;;;;12.60;100.00;101694.34;5015099;28;20567;-69
2023/10/31 02:20:35;;;;;;;9.48;7.88;;;;;;;12.55;100.00;101693.56;5018300;28;20056;-69
2023/10/31 02:23:01;;;;;;;12.25;9.10;;;;;;;12.86;100.00;101862.59;5020871;28;20025;-71
2023/10/31 02:25:26;;;;;;;10.18;8.55;;;;;;;12.52;100.00;101851.75;5008814;28;20037;-69
2023/10/31 02:27:52;;;;;;;11.02;8.70;;;;;;;12.90;100.00;101925.53;5016152;28;22228;-68
2023/10/31 02:30:17;;;;;;;9.82;8.75;;;;;;;12.71;100.00;101722.34;5016585;28;20079;-68
2023/10/31 02:32:43;;;;;;;11.63;9.40;;;;;;;12.87;100.00;101507.78;5019703;28;20112;-68
2023/10/31 02:35:09;;;;;;;10.77;9.38;;;;;;;12.93;100.00;101529.81;5014042;28;20092;-68
2023/10/31 02:37:35;;;;;;;10.75;9.45;;;;;;;12.65;100.00;101531.00;5017568;28;20458;-68
2023/10/31 02:40:00;;;;;;;10.75;9.40;;;;;;;12.79;100.00;101591.25;5014133;28;20072;-71
2023/10/31 02:42:27;;;;;;;15.27;10.60;;;;;;;13.07;100.00;101665.84;5005898;28;20784;-69
2023/10/31 02:44:53;;;;;;;13.40;10.23;;;;;;;12.76;100.00;101646.56;5016735;28;20045;-68
2023/10/31 02:47:18;;;;;;;28.00;13.15;;;;;;;12.73;100.00;101721.47;5012067;28;20045;-68
2023/10/31 02:49:44;;;;;;;21.88;12.93;;;;;;;12.22;100.00;101708.28;5021008;28;20025;-68
2023/10/31 02:52:09;;;;;;;18.42;12.52;;;;;;;13.01;100.00;101780.78;5009743;28;20555;-68
2023/10/31 02:54:35;;;;;;;19.85;12.38;;;;;;;12.31;100.00;101715.84;5020372;28;20128;-69
2023/10/31 02:57:00;;;;;;;20.58;12.60;;;;;;;12.62;100.00;101740.25;5023093;28;20420;-68
2023/10/31 02:59:26;;;;;;;32.20;13.20;;;;;;;12.31;100.00;101757.50;5009146;28;20025;-69
2023/10/31 03:01:52;;;;;;;33.67;12.95;;;;;;;12.37;100.00;101782.13;5010349;28;20052;-69
2023/10/31 03:04:18;;;;;;;47.72;12.82;;;;;;;11.61;100.00;101723.84;5020319;28;20037;-69
2023/10/31 03:06:43;;;;;;;88.60;11.68;;;;;;;11.68;100.00;101714.53;5017414;28;20404;-70
2023/10/31 03:09:08;;;;;;;97.30;11.40;;;;;;;11.56;100.00;101722.19;5009384;28;20473;-70
2023/10/31 03:11:34;;;;;;;67.78;10.38;;;;;;;11.74;100.00;101761.22;5026408;28;20038;-69
2023/10/31 03:13:59;;;;;;;191.75;12.88;;;;;;;11.45;100.00;101741.75;5020422;28;20065;-71
2023/10/31 03:16:25;;;;;;;102.22;10.95;;;;;;;11.52;100.00;101756.16;5021867;28;20532;-69
2023/10/31 03:18:50;;;;;;;46.28;10.00;;;;;;;11.57;100.00;101760.38;5022269;28;20041;-69
2023/10/31 03:21:17;;;;;;;39.85;9.40;;;;;;;11.54;100.00;101785.88;5023605;28;20030;-69
2023/10/31 03:23:46;;;;;;;27.33;9.23;;;;;;;11.30;100.00;101750.28;5018699;28;20033;-70
2023/10/31 03:26:12;;;;;;;26.00;9.77;;;;;;;11.59;100.00;101811.34;5009496;28;20061;-69
2023/10/31 03:28:37;;;;;;;79.65;10.48;;;;;;;10.86;100.00;101767.28;5019535;28;20148;-69
2023/10/31 03:31:03;;;;;;;24.65;9.02;;;;;;;11.54;100.00;101800.31;5019150;28;20495;-69
2023/10/31 03:33:28;;;;;;;41.25;9.20;;;;;;;11.51;100.00;101857.19;5023014;28;20075;-69
2023/10/31 03:35:54;;;;;;;18.77;8.68;;;;;;;11.49;100.00;101875.88;5009705;28;20038;-69
2023/10/31 03:38:19;;;;;;;17.00;9.30;;;;;;;11.23;100.00;101861.44;5018925;28;20032;-69
2023/10/31 03:40:45;;;;;;;27.95;9.57;;;;;;;11.71;100.00;101928.53;5019938;28;20026;-71
2023/10/31 03:43:10;;;;;;;12.95;8.32;;;;;;;11.43;100.00;101909.81;5017306;28;20475;-68
2023/10/31 03:45:35;;;;;;;22.00;8.68;;;;;;;11.78;100.00;101974.41;5006348;28;20034;-69
2023/10/31 03:48:01;;;;;;;11.85;7.50;;;;;;;11.95;100.00;101985.41;5009798;28;20065;-69
2023/10/31 03:50:27;;;;;;;20.80;7.88;;;;;;;11.45;100.00;101948.88;5017952;28;20033;-69
2023/10/31 03:52:52;;;;;;;19.30;7.22;;;;;;;11.57;100.00;101987.09;5009143;28;20026;-70
2023/10/31 03:55:18;;;;;;;11.73;6.95;;;;;;;11.74;100.00;102010.06;5018235;28;20042;-69
2023/10/31 03:57:43;;;;;;;15.10;7.22;;;;;;;11.28;100.00;101953.13;5019416;28;20489;-71
2023/10/31 04:00:11;;;;;;;14.02;7.32;;;;;;;11.78;100.00;102042.34;5008630;28;20067;-69
2023/10/31 04:02:36;;;;;;;20.05;7.40;;;;;;;11.56;100.00;102079.66;5015777;28;20061;-69
2023/10/31 04:05:02;;;;;;;59.20;8.82;;;;;;;11.31;100.00;102080.44;5017488;28;20555;-70
2023/10/31 04:07:28;;;;;;;22.60;7.85;;;;;;;11.47;100.00;102068.63;5017940;28;20065;-69
2023/10/31 04:09:54;;;;;;;18.10;7.95;;;;;;;11.20;100.00;102026.09;5015859;28;20505;-69
2023/10/31 04:12:20;;;;;;;11.43;7.60;;;;;;;11.75;100.00;102065.28;5008007;28;20120;-70
2023/10/31 04:14:45;;;;;;;38.78;9.10;;;;;;;10.92;100.00;102022.63;5014922;28;20125;-70
2023/10/31 04:17:11;;;;;;;12.35;7.28;;;;;;;11.58;100.00;102060.16;5016683;28;20030;-70
2023/10/31 04:19:37;;;;;;;31.42;9.13;;;;;;;11.45;100.00;102037.19;5019502;28;20029;-71
2023/10/31 04:22:02;;;;;;;92.32;10.05;;;;;;;10.95;100.00;101963.25;5019765;28;20032;-72
2023/10/31 04:24:28;;;;;;;44.42;9.70;;;;;;;11.09;100.00;102025.22;5018768;28;20076;-69
2023/10/31 04:26:53;;;;;;;129.20;12.07;;;;;;;10.33;100.00;101925.75;5017761;28;20168;-68
2023/10/31 04:29:18;;;;;;;167.98;13.35;;;;;;;10.87;100.00;101980.19;5015657;28;20416;-69
2023/10/31 04:31:44;;;;;;;42.95;11.73;;;;;;;10.58;100.00;101916.50;5011150;28;20057;-71
2023/10/31 04:34:09;;;;;;;98.53;13.38;;;;;;;10.77;100.00;101925.03;5015063;28;20112;-70
2023/10/31 04:36:35;;;;;;;57.88;11.45;;;;;;;10.93;100.00;101944.59;5007006;28;20041;-70
2023/10/31 04:39:00;;;;;;;41.58;11.55;;;;;;;10.91;100.00;101877.56;5018559;28;20471;-70
2023/10/31 04:41:25;;;;;;;89.47;12.80;;;;;;;10.93;100.00;101863.16;5014740;28;20032;-70
2023/10/31 04:43:51;;;;;;;99.53;13.32;;;;;;;10.69;100.00;101743.56;5013424;28;20042;-70
2023/10/31 04:46:16;;;;;;;47.55;12.75;;;;;;;10.97;100.00;101791.88;5016030;28;20030;-70
2023/10/31 04:48:42;;;;;;;146.95;14.27;;;;;;;10.67;100.00;101758.81;5014298;28;20528;-69
2023/10/31 04:51:07;;;;;;;82.45;13.88;;;;;;;10.87;100.00;101830.94;5019663;28;20032;-69
2023/10/31 04:53:34;;;;;;;49.50;13.70;;;;;;;11.01;100.00;101851.28;5015408;28;20035;-70
2023/10/31 04:55:59;;;;;;;52.92;12.85;;;;;;;11.05;100.00;101825.00;5016866;28;20120;-69
2023/10/31 04:58:25;;;;;;;50.80;14.70;;;;;;;11.23;100.00;101856.34;5013641;28;20116;-70
2023/10/31 05:00:50;;;;;;;70.65;14.05;;;;;;;11.18;100.00;101885.22;5005444;28;20386;-69
2023/10/31 05:03:16;;;;;;;77.40;13.77;;;;;;;10.78;100.00;101850.41;5014929;28;20037;-69
2023/10/31 05:05:42;;;;;;;71.10;13.98;;;;;;;10.79;100.00;101852.97;5018018;28;20030;-69
2023/10/31 05:08:08;;;;;;;92.15;14.82;;;;;;;11.17;100.00;101914.91;4988125;28;20128;-69
2023/10/31 05:10:34;;;;;;;73.55;12.32;;;;;;;10.77;100.00;101892.81;5016217;28;20416;-69
2023/10/31 05:13:02;;;;;;;57.38;10.70;;;;;;;10.77;100.00;101902.13;5015973;28;20076;-70
2023/10/31 05:15:27;;;;;;;60.05;9.63;;;;;;;10.82;100.00;101924.19;5014153;28;20129;-70
2023/10/31 05:17:53;;;;;;;54.08;9.50;;;;;;;10.93;100.00;101959.84;5005682;28;20564;-70
2023/10/31 05:20:19;;;;;;;51.90;9.32;;;;;;;10.97;100.00;101981.94;5018965;28;20026;-69
2023/10/31 05:22:44;;;;;;;45.40;9.25;;;;;;;11.09;100.00;101994.69;5007264;28;20033;-69
2023/10/31 05:25:10;;;;;;;48.03;9.82;;;;;;;11.01;100.00;101978.53;5016167;28;20030;-71
2023/10/31 05:27:35;;;;;;;40.33;9.65;;;;;;;10.78;100.00;101981.00;5008583;28;20497;-70
2023/10/31 05:30:01;;;;;;;34.38;10.70;;;;;;;11.19;100.00;102037.97;5017228;28;20120;-71
2023/10/31 05:32:26;;;;;;;35.50;10.10;;;;;;;11.28;100.00;102068.56;5018951;28;20428;-70
2023/10/31 05:34:51;;;;;;;18.85;8.80;;;;;;;11.06;100.00;102015.03;5016543;28;20417;-69
2023/10/31 05:37:17;;;;;;;22.00;8.65;;;;;;;11.51;100.00;102073.69;5017021;28;20029;-69
2023/10/31 05:39:42;;;;;;;29.67;8.07;;;;;;;11.09;100.00;102022.69;5014800;28;20055;-71
2023/10/31 05:42:08;;;;;;;16.33;7.45;;;;;;;11.59;100.00;102063.56;5006702;28;20125;-73
2023/10/31 05:44:33;;;;;;;32.88;7.57;;;;;;;11.56;100.00;102078.81;5008412;28;20037;-73
2023/10/31 05:46:59;;;;;;;14.63;7.68;;;;;;;12.14;100.00;102121.41;5006948;28;20386;-78
2023/10/31 05:49:24;;;;;;;44.38;12.52;;;;;;;12.02;100.00;102101.81;5014567;28;20033;-70
2023/10/31 05:51:51;;;;;;;22.52;10.48;;;;;;;11.76;100.00;102078.03;5012510;28;20052;-70
2023/10/31 05:54:16;;;;;;;47.45;10.35;;;;;;;11.24;100.00;102017.63;5017667;28;20476;-72
2023/10/31 05:56:42;;;;;;;19.80;9.98;;;;;;;12.32;100.00;102100.97;5004934;28;20022;-71
2023/10/31 05:59:07;;;;;;;16.42;10.07;;;;;;;12.96;100.00;102165.50;5012796;28;20401;-72
2023/10/31 06:01:33;;;;;;;24.08;9.50;;;;;;;13.15;100.00;102105.91;5017384;28;20041;-74
2023/10/31 06:03:58;;;;;;;16.42;6.80;;;;;;;11.48;100.00;101956.53;5015842;28;20037;-72
2023/10/31 06:06:24;;;;;;;7.82;5.97;;;;;;;13.72;100.00;102104.75;5015029;28;20030;-72
2023/10/31 06:08:49;;;;;;;10.52;6.93;;;;;;;14.03;100.00;102026.06;5013623;28;20394;-71
2023/10/31 06:11:15;;;;;;;15.05;7.15;;;;;;;15.19;100.00;102058.06;5017278;28;20029;-72
2023/10/31 06:13:41;;;;;;;11.55;7.32;;;;;;;16.72;100.00;102016.16;5003315;28;20535;-72
2023/10/31 06:16:07;;;;;;;14.27;6.75;;;;;;;15.63;100.00;101884.75;4999291;28;20038;-72
2023/10/31 06:18:34;;;;;;;7.97;6.35;;;;;;;14.66;100.00;101741.22;5004396;28;20029;-71
2023/10/31 06:20:59;;;;;;;10.52;6.88;;;;;;;15.08;100.00;101952.31;5015615;28;20030;-71
2023/10/31 06:23:25;;;;;;;9.55;6.90;;;;;;;16.29;100.00;102098.28;5014204;28;20078;-71
2023/10/31 06:25:50;;;;;;;10.32;6.85;;;;;;;16.32;100.00;102098.19;5015585;28;20038;-72
2023/10/31 06:28:16;;;;;;;9.10;7.07;;;;;;;16.27;100.00;102070.91;5016168;28;20168;-71
2023/10/31 06:30:41;;;;;;;9.98;7.45;;;;;;;14.16;100.00;101890.38;5017952;28;20037;-71
2023/10/31 06:33:08;;;;;;;12.55;7.68;;;;;;;13.75;100.00;101875.47;5019622;28;20412;-72
2023/10/31 06:35:34;;;;;;;10.50;7.55;;;;;;;13.87;100.00;101866.81;5008251;28;20046;-73
2023/10/31 06:37:59;;;;;;;10.98;7.55;;;;;;;13.52;100.00;101836.53;5021362;28;20570;-71
2023/10/31 06:40:25;;;;;;;12.32;6.97;;;;;;;15.02;100.00;101949.81;5020260;28;20038;-72
2023/10/31 06:42:51;;;;;;;10.38;7.10;;;;;;;14.90;100.00;101932.06;5016615;28;20041;-72
2023/10/31 06:45:16;;;;;;;10.90;7.63;;;;;;;14.61;100.00;101897.50;5020220;28;20030;-73
2023/10/31 06:47:42;;;;;;;12.13;7.60;;;;;;;14.91;100.00;101903.88;5009091;28;20128;-71
2023/10/31 06:50:08;;;;;;;14.60;8.20;;;;;;;15.10;100.00;101876.25;5017773;28;20762;-73
2023/10/31 06:52:33;;;;;;;11.85;8.05;;;;;;;15.52;100.00;101893.53;5017953;28;20037;-73
2023/10/31 06:54:59;;;;;;;10.75;7.90;;;;;;;15.38;100.00;101873.22;5019320;28;20045;-73
2023/10/31 06:57:24;;;;;;;15.15;9.27;;;;;;;15.11;100.00;101857.47;5015068;28;20140;-73
2023/10/31 06:59:49;;;;;;;16.80;9.50;;;;;;;15.32;100.00;101795.59;5020438;28;21105;-72
2023/10/31 07:02:15;;;;;;;12.63;7.55;;;;;;;15.52;100.00;101793.53;5018510;28;21689;-71
2023/10/31 07:04:40;;;;;;;10.77;8.30;;;;;;;14.92;100.00;101725.41;5018467;28;20033;-73
2023/10/31 07:07:06;;;;;;;11.57;7.63;;;;;;;15.35;100.00;101754.53;5008609;28;20026;-73
2023/10/31 07:09:32;;;;;;;12.35;7.53;;;;;;;15.61;100.00;101758.28;5013455;28;20034;-74
2023/10/31 07:11:57;;;;;;;11.73;9.10;;;;;;;15.45;100.00;101733.00;5010436;28;20171;-78
2023/10/31 07:14:22;;;;;;;13.38;9.40;;;;;;;16.16;100.00;101780.25;5022724;28;20041;-77
2023/10/31 07:16:48;;;;;;;11.75;8.52;;;;;;;16.10;100.00;101772.69;5019822;28;20025;-73
2023/10/31 07:19:14;;;;;;;14.90;8.43;;;;;;;16.27;100.00;101786.81;5020566;28;20036;-73
2023/10/31 07:21:39;;;;;;;11.63;8.45;;;;;;;15.94;100.00;101743.94;5012396;28;20041;-74
2023/10/31 07:24:07;;;;;;;12.40;10.07;;;;;;;16.17;100.00;101769.09;5016896;28;20117;-71
2023/10/31 07:26:32;;;;;;;16.30;14.48;;;;;;;16.30;100.00;101788.50;5018339;28;20036;-74
2023/10/31 07:28:58;;;;;;;18.65;16.83;;;;;;;16.43;100.00;101782.19;5015905;28;20037;-74
2023/10/31 07:31:23;;;;;;;19.83;17.80;;;;;;;16.54;100.00;101798.22;5009477;28;20030;-75
2023/10/31 07:33:50;;;;;;;16.10;14.00;;;;;;;16.41;100.00;101735.16;5017286;28;20037;-72
2023/10/31 07:36:15;;;;;;;16.30;11.73;;;;;;;16.55;100.00;101727.16;5020038;28;20029;-72
2023/10/31 07:38:41;;;;;;;14.00;10.70;;;;;;;16.74;100.00;101783.19;5020358;28;20415;-73
2023/10/31 07:41:06;;;;;;;14.25;10.98;;;;;;;16.36;100.00;101675.38;5016703;28;20032;-73
2023/10/31 07:43:31;;;;;;;15.50;12.02;;;;;;;16.80;100.00;101767.63;5009017;28;20469;-71
2023/10/31 07:45:57;;;;;;;10.02;7.80;;;;;;;16.89;100.00;101721.16;5007651;28;20541;-72
2023/10/31 07:48:22;;;;;;;8.38;6.45;;;;;;;16.84;100.00;101722.97;5017762;28;20029;-72
2023/10/31 07:50:48;;;;;;;12.35;6.55;;;;;;;17.34;100.00;101770.50;5018922;28;20113;-72
2023/10/31 07:53:13;;;;;;;8.65;6.20;;;;;;;17.17;100.00;101765.78;5011390;28;20072;-73
2023/10/31 07:55:38;;;;;;;14.25;9.73;;;;;;;17.19;100.00;101758.88;5008764;28;20048;-72
2023/10/31 07:58:04;;;;;;;10.88;6.93;;;;;;;17.45;100.00;101747.06;5008277;28;20033;-72
2023/10/31 08:00:30;;;;;;;8.98;7.18;;;;;;;17.26;100.00;101793.00;5010683;28;20037;-73
2023/10/31 08:02:56;;;;;;;10.05;7.53;;;;;;;17.56;100.00;101799.94;5021723;28;20033;-72
2023/10/31 08:05:21;;;;;;;11.05;7.18;;;;;;;17.88;100.00;101797.31;5010885;28;20481;-72
2023/10/31 08:07:47;;;;;;;9.15;7.18;;;;;;;17.33;100.00;101713.06;5019584;28;20096;-72
2023/10/31 08:10:13;;;;;;;11.25;7.88;;;;;;;17.28;100.00;101722.66;5018024;28;20548;-72
2023/10/31 08:12:38;;;;;;;12.65;9.00;;;;;;;17.77;100.00;101729.84;5013652;28;20056;-72
2023/10/31 08:15:04;;;;;;;14.18;9.52;;;;;;;18.23;100.00;101759.34;5016391;28;20444;-73
2023/10/31 08:17:30;;;;;;;12.98;9.27;;;;;;;18.32;100.00;101767.66;5021261;28;20033;-72
2023/10/31 08:19:55;;;;;;;14.10;8.93;;;;;;;18.57;100.00;101741.97;5009047;28;20032;-71
2023/10/31 08:22:20;;;;;;;13.55;8.43;;;;;;;18.18;100.00;101669.38;5021601;28;20172;-72
2023/10/31 08:24:46;;;;;;;15.32;7.47;;;;;;;18.41;100.00;101661.75;5008735;28;20377;-73
2023/10/31 08:27:12;;;;;;;13.38;7.20;;;;;;;18.22;100.00;101650.38;5008790;28;20018;-73
2023/10/31 08:29:38;;;;;;;13.07;7.07;;;;;;;18.30;100.00;101642.38;5017965;28;20021;-71
2023/10/31 08:32:04;;;;;;;14.75;7.05;;;;;;;18.66;100.00;101685.00;5009458;28;20617;-72
2023/10/31 08:34:29;;;;;;;13.68;6.40;;;;;;;18.64;100.00;101707.41;5007069;28;20180;-73
2023/10/31 08:36:56;;;;;;;9.10;5.90;;;;;;;18.16;100.00;101787.84;5008785;28;20112;-74
2023/10/31 08:39:22;;;;;;;14.68;5.90;;;;;;;18.22;100.00;101876.97;5015355;28;20075;-74
2023/10/31 08:41:55;;;;;;;12.18;6.13;;;;;;;18.41;100.00;102079.06;5014511;28;20424;-74
2023/10/31 08:44:20;;;;;;;9.57;5.45;;;;;;;19.21;100.00;102385.50;5016505;28;20038;-72
2023/10/31 08:46:46;;;;;;;9.15;5.63;;;;;;;19.57;100.00;102713.28;5014275;28;20033;-74
2023/10/31 08:49:13;;;;;;;11.82;6.38;;;;;;;19.71;100.00;103203.59;5021497;28;20029;-71
2023/10/31 08:51:38;;;;;;;12.77;5.90;;;;;;;19.80;100.00;103971.53;5021777;28;20120;-75
2023/10/31 08:54:04;;;;;;;14.60;6.40;;;;;;;19.93;100.00;104220.41;5019343;28;20165;-73
2023/10/31 08:56:29;;;;;;;9.30;6.35;;;;;;;19.28;100.00;104289.03;5010662;28;20041;-72
2023/10/31 08:58:55;;;;;;;11.38;6.10;;;;;;;19.47;100.00;104327.06;5015693;28;20037;-71
2023/10/31 09:01:20;;;;;;;9.48;6.57;;;;;;;19.56;100.00;104201.41;5005958;28;20026;-73
2023/10/31 09:03:46;;;;;;;12.05;6.57;;;;;;;19.81;100.00;104156.66;5006417;28;20030;-73
2023/10/31 09:06:11;;;;;;;10.23;5.70;;;;;;;20.41;100.00;104153.25;5018642;28;20025;-73
2023/10/31 09:08:38;;;;;;;13.05;6.60;;;;;;;19.88;100.00;104087.78;5015319;28;20041;-73
2023/10/31 09:11:06;;;;;;;10.13;6.53;;;;;;;20.10;100.00;104058.47;5020551;28;20060;-73
2023/10/31 09:13:32;;;;;;;9.90;6.00;;;;;;;20.13;100.00;104030.00;5015809;28;20049;-74
2023/10/31 09:15:59;;;;;;;13.10;5.80;;;;;;;20.41;100.00;104072.19;5008544;28;20511;-74
2023/10/31 09:18:25;;;;;;;9.10;5.97;;;;;;;20.33;100.00;103994.66;5014374;28;20116;-75
2023/10/31 09:20:51;;;;;;;12.13;5.85;;;;;;;20.64;100.00;103991.06;5018309;28;20484;-73
2023/10/31 09:23:17;;;;;;;11.00;6.05;;;;;;;20.89;100.00;103990.91;5012192;28;20101;-73
2023/10/31 09:25:43;;;;;;;9.35;5.43;;;;;;;20.81;100.00;103996.16;5018033;28;20048;-72
2023/10/31 09:28:09;;;;;;;10.23;5.38;;;;;;;21.31;100.00;104084.72;5022374;28;20048;-73
2023/10/31 09:30:34;;;;;;;11.00;5.30;;;;;;;21.33;100.00;103919.00;5017757;28;20473;-72
2023/10/31 09:32:59;;;;;;;13.70;5.57;;;;;;;21.41;100.00;103912.00;5016783;28;20037;-72
2023/10/31 09:35:26;;;;;;;10.15;5.40;;;;;;;21.33;100.00;103900.84;5015039;28;20485;-72
2023/10/31 09:37:51;;;;;;;9.18;5.68;;;;;;;21.09;100.00;103961.47;5007819;28;20057;-73
2023/10/31 09:40:17;;;;;;;9.25;5.88;;;;;;;21.59;100.00;104099.19;5017818;28;21976;-73
2023/10/31 09:42:44;;;;;;;9.07;6.40;;;;;;;21.45;100.00;104989.66;5016805;28;20424;-73
2023/10/31 09:45:10;;;;;;;11.32;6.38;;;;;;;21.57;100.00;104958.66;5004946;28;20038;-73
2023/10/31 09:47:36;;;;;;;12.25;7.15;;;;;;;21.92;100.00;104900.97;5013449;28;20071;-73
2023/10/31 09:50:01;;;;;;;14.52;7.70;;;;;;;21.75;100.00;104763.47;5012499;28;20035;-73
2023/10/31 09:52:27;;;;;;;13.98;7.53;;;;;;;21.64;100.00;104731.47;5009291;28;20033;-73
2023/10/31 09:54:53;;;;;;;12.27;8.05;;;;;;;21.50;100.00;104596.72;5014690;28;20452;-72
2023/10/31 09:57:18;;;;;;;13.15;7.22;;;;;;;21.80;100.00;104496.47;5018413;28;20095;-73
2023/10/31 09:59:44;;;;;;;14.85;7.15;;;;;;;21.71;100.00;104330.66;5019662;28;20116;-73
2023/10/31 10:02:10;;;;;;;10.65;6.43;;;;;;;21.47;100.00;104098.44;5019892;28;20056;-73
2023/10/31 10:04:38;;;;;;;13.32;5.88;;;;;;;21.89;100.00;104022.94;5022094;28;20061;-72
2023/10/31 10:07:04;;;;;;;10.80;7.00;;;;;;;22.32;100.00;103972.31;5021835;28;20046;-73
2023/10/31 10:09:32;;;;;;;11.52;6.45;;;;;;;22.08;100.00;103798.03;5023759;28;20065;-81
2023/10/31 10:12:00;;;;;;;11.57;6.68;;;;;;;22.25;100.00;103659.44;5015352;28;20033;-71
2023/10/31 10:14:31;;;;;;;12.13;6.18;;;;;;;21.85;100.00;103482.16;5021213;28;20037;-71
2023/10/31 10:16:57;;;;;;;10.10;7.10;;;;;;;21.51;100.00;103351.53;5024150;28;20523;-74
2023/10/31 10:19:23;;;;;;;11.18;7.15;;;;;;;21.29;100.00;103343.28;5016112;28;20409;-73
2023/10/31 10:21:53;;;;;;;15.00;7.18;;;;;;;21.85;100.00;103349.97;4659142;28;9999939;-73
2023/10/31 10:24:20;;;;;;;13.32;7.45;;;;;;;21.89;100.00;103227.22;5009670;28;20043;-72
2023/10/31 10:26:46;;;;;;;13.48;7.78;;;;;;;22.64;100.00;103239.28;5017563;28;20042;-73
2023/10/31 10:29:12;;;;;;;16.33;8.07;;;;;;;22.30;100.00;103074.09;5009693;28;20025;-75
2023/10/31 10:31:37;;;;;;;11.40;7.15;;;;;;;22.35;100.00;103003.97;5007214;28;20056;-72
2023/10/31 10:34:03;;;;;;;12.75;7.63;;;;;;;22.36;100.00;102957.22;5020633;28;20033;-73
2023/10/31 10:36:31;;;;;;;15.77;7.70;;;;;;;23.01;100.00;102937.09;5018318;28;20091;-73
2023/10/31 10:39:00;;;;;;;16.25;7.53;;;;;;;22.16;100.00;103015.75;5011316;28;20782;-72
2023/10/31 10:41:27;;;;;;;12.15;6.70;;;;;;;22.90;100.00;103032.63;5007369;28;20037;-74
2023/10/31 10:44:06;;;;;;;10.82;7.45;;;;;;;22.80;100.00;102792.44;5016815;28;20103;-74
2023/10/31 10:46:36;;;;;;;17.73;8.40;;;;;;;22.75;100.00;102677.56;5013970;28;20033;-73
2023/10/31 10:49:06;;;;;;;14.43;7.68;;;;;;;22.81;100.00;102300.25;5019417;28;20038;-74
2023/10/31 10:51:50;;;;;;;15.60;8.40;;;;;;;23.20;100.00;101823.44;5017320;28;20033;-76
2023/10/31 10:54:24;;;;;;;14.25;8.50;;;;;;;22.20;100.00;101613.22;5015499;28;20041;-74
2023/10/31 10:57:09;;;;;;;14.93;8.05;;;;;;;22.86;100.00;101644.41;5017261;28;20123;-75
2023/10/31 10:59:43;;;;;;;14.02;7.90;;;;;;;23.31;100.00;101607.41;5012788;28;20041;-71
2023/10/31 11:02:12;;;;;;;15.18;8.18;;;;;;;22.49;100.00;101463.09;5009627;28;20133;-73